Time;durP1;ratioP1;P1;durP2;ratioP2;P2;SDS_P1;SDS_P2;PMS_P1;PMS_P2;Temp;Humidity;BMP_temperature;BMP_pressure;BME280_temperature;BME280_humidity;BME280_pressure;Samples;Min_cycle;Max_cycle;Signal;HPM_P1;HPM_P2
2023/05/23 00:01:06;;;;;;;4.07;2.43;;;;;;;15.62;100.00;98957.81;5090438;28;20255;-74
2023/05/23 00:03:33;;;;;;;8.03;2.17;;;;;;;15.54;100.00;98960.31;5090264;28;20483;-69
2023/05/23 00:06:01;;;;;;;3.93;2.10;;;;;;;15.51;100.00;98959.81;5090282;28;20231;-69
2023/05/23 00:08:27;;;;;;;2.43;2.17;;;;;;;15.49;100.00;98965.09;5090545;28;20217;-73
2023/05/23 00:10:54;;;;;;;3.67;2.43;;;;;;;15.55;100.00;98961.94;5090172;28;20325;-73
2023/05/23 00:13:22;;;;;;;2.77;2.00;;;;;;;15.55;100.00;98967.06;5089935;28;20221;-73
2023/05/23 00:15:49;;;;;;;2.90;2.50;;;;;;;15.48;100.00;98955.75;5090050;28;20468;-73
2023/05/23 00:18:16;;;;;;;2.90;2.47;;;;;;;15.45;100.00;98960.38;5090072;28;20721;-69
2023/05/23 00:20:45;;;;;;;3.13;2.40;;;;;;;15.44;100.00;98954.41;5090385;28;20258;-73
2023/05/23 00:23:17;;;;;;;3.17;2.30;;;;;;;15.34;100.00;98953.66;5090069;28;20270;-69
2023/05/23 00:25:47;;;;;;;3.67;2.53;;;;;;;15.30;100.00;98957.47;5090004;28;20220;-73
2023/05/23 00:28:15;;;;;;;4.73;2.43;;;;;;;15.26;100.00;98951.00;5089038;28;20201;-69
2023/05/23 00:30:43;;;;;;;3.00;2.17;;;;;;;15.28;100.00;98959.38;5089799;28;20659;-69
2023/05/23 00:33:12;;;;;;;4.17;2.70;;;;;;;15.30;100.00;98957.47;5089674;28;20200;-69
2023/05/23 00:35:39;;;;;;;3.53;2.53;;;;;;;15.23;100.00;98961.56;5089899;28;20201;-69
2023/05/23 00:38:06;;;;;;;3.20;2.33;;;;;;;15.15;100.00;98952.81;5090117;28;20261;-73
2023/05/23 00:40:33;;;;;;;3.30;2.30;;;;;;;15.13;100.00;98952.13;5090108;28;20208;-73
2023/05/23 00:43:00;;;;;;;16.43;2.53;;;;;;;15.14;100.00;98952.94;5089977;28;20235;-70
2023/05/23 00:45:27;;;;;;;2.60;2.20;;;;;;;15.09;100.00;98948.22;5089747;28;20207;-73
2023/05/23 00:47:57;;;;;;;4.70;2.10;;;;;;;15.15;100.00;98946.84;5089602;28;20204;-69
2023/05/23 00:50:28;;;;;;;4.97;2.90;;;;;;;15.15;100.00;98939.94;5090089;28;20259;-73
2023/05/23 00:52:57;;;;;;;4.20;2.30;;;;;;;15.13;100.00;98946.19;5089551;28;20240;-69
2023/05/23 00:55:24;;;;;;;3.63;2.57;;;;;;;15.07;100.00;98939.84;5089906;28;20190;-74
2023/05/23 00:57:54;;;;;;;4.50;2.27;;;;;;;15.13;100.00;98936.69;5089440;28;20214;-69
2023/05/23 01:00:21;;;;;;;3.70;2.57;;;;;;;15.08;100.00;98938.88;5090043;28;20722;-73
2023/05/23 01:02:50;;;;;;;4.10;2.47;;;;;;;15.08;100.00;98933.72;5089634;28;20675;-69
2023/05/23 01:05:21;;;;;;;3.23;2.30;;;;;;;15.06;100.00;98927.91;5089564;28;20216;-74
2023/05/23 01:07:48;;;;;;;4.90;2.57;;;;;;;15.02;100.00;98924.00;5089317;28;20216;-69
2023/05/23 01:10:19;;;;;;;3.23;2.40;;;;;;;15.02;100.00;98929.16;5089189;28;20218;-74
2023/05/23 01:12:56;;;;;;;3.13;2.20;;;;;;;15.03;100.00;98920.47;5089538;28;20769;-71
2023/05/23 01:15:29;;;;;;;4.13;2.60;;;;;;;15.03;100.00;98919.66;5089922;28;20211;-69
2023/05/23 01:18:02;;;;;;;3.80;2.53;;;;;;;15.02;100.00;98923.19;5089575;28;20203;-69
2023/05/23 01:20:35;;;;;;;6.23;2.00;;;;;;;14.91;100.00;98924.19;5089119;28;20233;-73
2023/05/23 01:23:36;;;;;;;4.70;2.30;;;;;;;14.77;100.00;98919.50;5089557;28;20213;-69
2023/05/23 01:26:18;;;;;;;3.37;1.97;;;;;;;14.80;100.00;98921.78;5089420;28;20210;-74
2023/05/23 01:28:50;;;;;;;3.57;2.10;;;;;;;14.68;100.00;98927.13;5089006;28;20295;-74
2023/05/23 01:31:18;;;;;;;3.53;2.27;;;;;;;14.71;100.00;98931.97;5089382;28;20230;-71
2023/05/23 01:33:48;;;;;;;3.93;2.60;;;;;;;14.70;100.00;98930.38;5088936;28;20253;-74
2023/05/23 01:36:15;;;;;;;4.53;2.63;;;;;;;14.61;100.00;98931.22;5089161;28;20247;-74
2023/05/23 01:38:42;;;;;;;2.90;2.50;;;;;;;14.58;100.00;98921.22;5089770;28;20222;-69
2023/05/23 01:41:09;;;;;;;3.93;2.57;;;;;;;14.59;100.00;98927.97;5093199;28;20663;-74
2023/05/23 01:43:36;;;;;;;3.73;1.97;;;;;;;14.46;100.00;98927.44;5092771;28;20218;-69
2023/05/23 01:46:06;;;;;;;3.57;2.50;;;;;;;14.43;100.00;98925.97;5092796;28;20271;-69
2023/05/23 01:48:34;;;;;;;4.70;2.57;;;;;;;14.43;100.00;98927.72;5092627;28;20283;-69
2023/05/23 01:51:01;;;;;;;2.83;2.53;;;;;;;14.42;100.00;98931.22;5092670;28;20198;-69
2023/05/23 01:53:30;;;;;;;4.63;2.80;;;;;;;14.40;100.00;98928.81;5092717;28;20234;-74
2023/05/23 01:55:57;;;;;;;4.33;2.53;;;;;;;14.36;100.00;98926.63;5092735;28;20214;-74
2023/05/23 01:58:24;;;;;;;1.93;1.73;;;;;;;14.37;100.00;98933.41;5092691;28;20221;-69
2023/05/23 02:00:51;;;;;;;3.57;2.43;;;;;;;14.32;100.00;98930.44;5092607;28;20202;-69
2023/05/23 02:03:19;;;;;;;3.00;2.10;;;;;;;14.38;100.00;98932.47;5092532;28;20582;-74
2023/05/23 02:05:46;;;;;;;3.83;2.27;;;;;;;14.34;100.00;98933.69;5092531;28;20194;-73
2023/05/23 02:08:13;;;;;;;4.27;2.47;;;;;;;14.37;100.00;98938.53;5092479;28;20647;-74
2023/05/23 02:10:40;;;;;;;3.77;2.50;;;;;;;14.34;100.00;98934.50;5092594;28;20194;-69
2023/05/23 02:13:06;;;;;;;3.93;2.70;;;;;;;14.24;100.00;98929.38;5092140;28;20717;-73
2023/05/23 02:15:33;;;;;;;2.93;2.20;;;;;;;14.21;100.00;98939.13;5092371;28;20198;-69
2023/05/23 02:18:00;;;;;;;4.47;2.43;;;;;;;14.26;100.00;98935.19;5092077;28;20196;-69
2023/05/23 02:20:29;;;;;;;3.43;2.47;;;;;;;14.20;100.00;98946.03;5092712;28;20198;-74
2023/05/23 02:22:55;;;;;;;3.50;2.30;;;;;;;14.14;100.00;98941.44;5092266;28;20203;-69
2023/05/23 02:25:22;;;;;;;3.00;2.23;;;;;;;14.19;100.00;98952.09;5092558;28;20210;-69
2023/05/23 02:27:49;;;;;;;2.93;2.37;;;;;;;14.30;100.00;98935.72;5092204;28;20214;-69
2023/05/23 02:30:16;;;;;;;4.10;2.63;;;;;;;14.25;100.00;98940.47;5092175;28;20218;-74
2023/05/23 02:32:43;;;;;;;2.87;2.50;;;;;;;14.24;100.00;98938.84;5092089;28;20226;-69
2023/05/23 02:35:10;;;;;;;6.60;2.67;;;;;;;14.11;100.00;98941.72;5090860;28;20238;-70
2023/05/23 02:37:38;;;;;;;5.23;3.20;;;;;;;14.15;100.00;98949.97;5091910;28;20606;-74
2023/05/23 02:40:07;;;;;;;4.67;2.40;;;;;;;14.21;100.00;98955.34;5092020;28;20241;-74
2023/05/23 02:42:34;;;;;;;3.90;2.83;;;;;;;14.16;100.00;98954.13;5091810;28;20302;-74
2023/05/23 02:45:01;;;;;;;3.40;2.33;;;;;;;14.18;100.00;98960.78;5092008;28;20611;-69
2023/05/23 02:47:28;;;;;;;4.33;2.70;;;;;;;14.17;100.00;98963.50;5091615;28;20301;-69
2023/05/23 02:49:55;;;;;;;4.10;2.57;;;;;;;14.11;100.00;98954.56;5091862;28;20214;-74
2023/05/23 02:52:21;;;;;;;5.30;2.40;;;;;;;14.09;100.00;98961.59;5091026;28;20233;-74
2023/05/23 02:54:49;;;;;;;3.60;2.70;;;;;;;14.04;100.00;98963.75;5091365;28;20712;-69
2023/05/23 02:57:16;;;;;;;4.77;3.20;;;;;;;13.98;100.00;98966.88;5091330;28;20206;-74
2023/05/23 02:59:43;;;;;;;3.87;2.30;;;;;;;13.72;100.00;98964.81;5091710;28;20596;-74
2023/05/23 03:02:10;;;;;;;4.13;2.63;;;;;;;13.61;100.00;98962.38;5091412;28;20231;-74
2023/05/23 03:04:37;;;;;;;4.03;2.70;;;;;;;13.80;100.00;98962.41;5091279;28;20218;-69
2023/05/23 03:07:05;;;;;;;3.00;2.40;;;;;;;13.88;100.00;98964.31;5091535;28;20209;-74
2023/05/23 03:09:32;;;;;;;4.47;2.63;;;;;;;13.93;100.00;98961.31;5091349;28;20772;-69
2023/05/23 03:12:00;;;;;;;5.63;3.20;;;;;;;13.97;100.00;98967.84;5091330;28;20237;-69
2023/05/23 03:14:27;;;;;;;7.60;2.43;;;;;;;13.97;100.00;98962.69;5091397;28;20253;-69
2023/05/23 03:16:53;;;;;;;7.07;3.00;;;;;;;14.11;100.00;98962.28;5091415;28;20607;-69
2023/05/23 03:19:20;;;;;;;2.90;2.30;;;;;;;14.12;100.00;98976.75;5091052;28;20286;-74
2023/05/23 03:21:49;;;;;;;10.23;3.17;;;;;;;13.91;100.00;98974.31;5090873;28;20267;-75
2023/05/23 03:24:15;;;;;;;4.20;2.73;;;;;;;13.90;100.00;98977.00;5090933;28;20260;-69
2023/05/23 03:26:42;;;;;;;4.93;3.40;;;;;;;14.07;100.00;98978.09;5091022;28;20198;-69
2023/05/23 03:29:10;;;;;;;4.83;3.20;;;;;;;14.09;100.00;98982.16;5090826;28;20710;-69
2023/05/23 03:31:37;;;;;;;3.77;2.63;;;;;;;14.15;100.00;98981.63;5090783;28;20301;-69
2023/05/23 03:34:05;;;;;;;3.40;2.67;;;;;;;14.19;100.00;98982.16;5090850;28;20230;-69
2023/05/23 03:36:33;;;;;;;14.90;3.20;;;;;;;14.17;100.00;98984.06;5090815;28;20217;-75
2023/05/23 03:39:00;;;;;;;4.00;2.93;;;;;;;14.14;100.00;98980.00;5090631;28;20424;-69
2023/05/23 03:41:26;;;;;;;4.40;2.70;;;;;;;14.14;100.00;98984.34;5090785;28;20644;-74
2023/05/23 03:43:53;;;;;;;4.17;2.67;;;;;;;14.19;100.00;98982.97;5090667;28;20226;-69
2023/05/23 03:46:21;;;;;;;8.60;3.40;;;;;;;14.27;100.00;98980.53;5090413;28;20230;-74
2023/05/23 03:48:48;;;;;;;7.33;4.27;;;;;;;14.36;100.00;98978.09;5090208;28;20233;-75
2023/05/23 03:51:15;;;;;;;11.53;5.50;;;;;;;14.44;100.00;98986.72;5090787;28;20636;-74
2023/05/23 03:53:41;;;;;;;18.17;6.10;;;;;;;14.54;100.00;98970.50;5090229;28;20290;-69
2023/05/23 03:56:08;;;;;;;16.27;6.20;;;;;;;14.55;100.00;98967.78;5090772;28;20198;-74
2023/05/23 03:58:35;;;;;;;14.90;6.00;;;;;;;14.67;100.00;98978.75;5090315;28;20218;-70
2023/05/23 04:01:02;;;;;;;19.87;6.50;;;;;;;14.71;100.00;98978.31;5090409;28;20202;-74
2023/05/23 04:03:32;;;;;;;15.60;5.53;;;;;;;14.75;100.00;98978.00;5089959;28;20215;-69
2023/05/23 04:05:59;;;;;;;10.57;5.77;;;;;;;14.65;100.00;98978.84;5090839;28;20195;-69
2023/05/23 04:08:26;;;;;;;11.53;4.93;;;;;;;14.79;100.00;98981.94;5090265;28;20213;-74
2023/05/23 04:10:53;;;;;;;8.80;4.27;;;;;;;14.91;100.00;98983.41;5090493;28;20557;-70
2023/05/23 04:13:22;;;;;;;6.60;4.17;;;;;;;15.05;100.00;98980.38;5089974;28;20243;-69
2023/05/23 04:15:48;;;;;;;11.17;4.87;;;;;;;15.17;100.00;98979.22;5089980;28;20211;-73
2023/05/23 04:18:16;;;;;;;7.47;4.63;;;;;;;15.16;100.00;98976.81;5090040;28;20222;-73
2023/05/23 04:20:44;;;;;;;7.37;3.90;;;;;;;15.36;100.00;98985.25;5089935;28;20290;-69
2023/05/23 04:23:11;;;;;;;8.47;3.07;;;;;;;15.45;100.00;98992.09;5090222;28;20558;-69
2023/05/23 04:25:38;;;;;;;4.50;3.13;;;;;;;15.33;100.00;98994.06;5090257;28;20209;-71
2023/05/23 04:28:05;;;;;;;4.60;3.13;;;;;;;15.54;100.00;98991.25;5089929;28;20211;-73
2023/05/23 04:30:32;;;;;;;4.87;3.23;;;;;;;15.71;100.00;99001.75;5090231;28;20199;-69
2023/05/23 04:32:59;;;;;;;5.23;3.73;;;;;;;15.87;100.00;99007.06;5089867;28;20325;-73
2023/05/23 04:35:27;;;;;;;5.13;3.43;;;;;;;16.01;100.00;99009.13;5090279;28;20207;-69
2023/05/23 04:37:57;;;;;;;7.27;3.20;;;;;;;16.22;100.00;99008.81;5089922;28;20201;-73
2023/05/23 04:40:24;;;;;;;5.33;3.40;;;;;;;16.22;100.00;99010.59;5089815;28;20201;-70
2023/05/23 04:42:51;;;;;;;6.13;3.87;;;;;;;16.39;100.00;99012.34;5089922;28;20216;-69
2023/05/23 04:45:18;;;;;;;5.90;3.43;;;;;;;16.32;100.00;99011.34;5089909;28;20709;-69
2023/05/23 04:47:45;;;;;;;5.83;3.47;;;;;;;16.52;100.00;99017.94;5089576;28;20493;-70
2023/05/23 04:50:13;;;;;;;5.80;3.13;;;;;;;16.73;100.00;99012.44;5089590;28;20215;-69
2023/05/23 04:52:40;;;;;;;4.17;2.40;;;;;;;16.58;100.00;99011.38;5089810;28;20228;-73
2023/05/23 04:55:09;;;;;;;4.70;3.10;;;;;;;16.69;100.00;99010.28;5089751;28;20215;-69
2023/05/23 04:57:36;;;;;;;6.03;3.23;;;;;;;16.85;100.00;99010.44;5089469;28;20204;-69
2023/05/23 05:00:07;;;;;;;5.33;3.33;;;;;;;16.99;100.00;99003.88;5089655;28;20228;-74
2023/05/23 05:02:35;;;;;;;6.07;3.57;;;;;;;17.19;100.00;99005.28;5089691;28;20732;-73
2023/05/23 05:05:02;;;;;;;4.90;3.33;;;;;;;17.24;100.00;99012.53;5089583;28;20228;-73
2023/05/23 05:07:29;;;;;;;4.73;3.07;;;;;;;17.06;100.00;99017.00;5089853;28;20742;-74
2023/05/23 05:09:56;;;;;;;4.03;2.97;;;;;;;17.24;100.00;99015.13;5089649;28;20269;-73
2023/05/23 05:12:24;;;;;;;6.77;3.00;;;;;;;17.37;100.00;99010.34;5089309;28;20228;-75
2023/05/23 05:14:51;;;;;;;4.50;3.20;;;;;;;17.63;100.00;99006.88;5092246;28;20654;-73
2023/05/23 05:17:18;;;;;;;6.63;2.97;;;;;;;17.86;100.00;99007.91;5093373;28;20218;-69
2023/05/23 05:19:45;;;;;;;5.47;2.87;;;;;;;17.60;100.00;99008.00;5093460;28;20224;-69
2023/05/23 05:22:12;;;;;;;4.87;3.50;;;;;;;17.35;100.00;99019.22;5093453;28;20200;-73
2023/05/23 05:24:40;;;;;;;5.33;3.30;;;;;;;17.95;100.00;99015.66;5093263;28;20692;-70
2023/05/23 05:27:08;;;;;;;5.57;3.17;;;;;;;18.47;100.00;99016.19;5093733;28;20203;-69
2023/05/23 05:29:36;;;;;;;5.77;3.47;;;;;;;18.85;100.00;99023.44;5093043;28;20225;-70
2023/05/23 05:32:03;;;;;;;5.10;3.73;;;;;;;18.83;100.00;99020.22;5093254;28;20210;-70
2023/05/23 05:34:30;;;;;;;4.77;3.17;;;;;;;19.13;100.00;99016.06;5093048;28;20612;-70
2023/05/23 05:36:57;;;;;;;4.43;3.13;;;;;;;19.50;100.00;99015.44;5093184;28;20290;-74
2023/05/23 05:39:25;;;;;;;7.67;3.63;;;;;;;19.58;100.00;99015.41;5092576;28;20228;-70
2023/05/23 05:41:52;;;;;;;6.47;2.97;;;;;;;20.18;100.00;99024.25;5093183;28;20539;-69
2023/05/23 05:44:19;;;;;;;4.97;3.10;;;;;;;20.29;100.00;99028.25;5091888;28;20223;-69
2023/05/23 05:46:47;;;;;;;4.80;3.20;;;;;;;20.66;100.00;99034.47;5092817;28;20201;-70
2023/05/23 05:49:14;;;;;;;5.07;3.40;;;;;;;20.34;98.91;99037.13;5091499;28;20213;-69
2023/05/23 05:51:41;;;;;;;5.00;3.20;;;;;;;20.86;100.00;99040.75;5092382;28;20200;-74
2023/05/23 05:54:08;;;;;;;4.57;3.53;;;;;;;20.62;99.93;99046.16;5092866;28;20260;-69
2023/05/23 05:56:35;;;;;;;4.03;2.63;;;;;;;20.12;100.00;99041.34;5092856;28;20585;-69
2023/05/23 05:59:01;;;;;;;5.30;3.67;;;;;;;19.76;100.00;99037.69;5092096;28;20232;-74
2023/05/23 06:01:29;;;;;;;3.77;3.23;;;;;;;19.49;100.00;99039.75;5091157;28;20200;-74
2023/05/23 06:03:58;;;;;;;5.17;3.50;;;;;;;20.52;100.00;99044.63;5090665;28;20225;-74
2023/05/23 06:06:24;;;;;;;4.87;3.07;;;;;;;21.00;100.00;99041.72;5092380;28;20200;-75
2023/05/23 06:08:52;;;;;;;5.27;3.17;;;;;;;20.93;93.90;99054.63;5092295;28;20228;-75
2023/05/23 06:11:19;;;;;;;4.03;3.00;;;;;;;21.40;94.01;99043.09;5092926;28;20594;-71
2023/05/23 06:13:46;;;;;;;4.67;2.93;;;;;;;21.96;89.46;99049.50;5092473;28;20237;-75
2023/05/23 06:16:13;;;;;;;4.38;2.92;;;;;;;21.61;91.34;99054.53;5092627;28;20194;-69
2023/05/23 06:18:41;;;;;;;9.95;2.95;;;;;;;21.66;89.95;99052.19;5092293;28;20229;-74
2023/05/23 06:21:09;;;;;;;3.63;2.60;;;;;;;21.90;92.44;99049.28;5092611;28;20195;-74
2023/05/23 06:23:36;;;;;;;6.40;3.10;;;;;;;22.15;89.04;99054.09;5092247;28;20218;-69
2023/05/23 06:26:06;;;;;;;3.97;2.47;;;;;;;22.41;87.71;99061.38;5090983;28;20743;-70
2023/05/23 06:28:33;;;;;;;4.57;2.97;;;;;;;22.56;83.55;99058.69;5092334;28;20287;-74
2023/05/23 06:31:00;;;;;;;33.95;6.93;;;;;;;22.62;84.97;99054.53;5092317;28;20680;-74
2023/05/23 06:33:28;;;;;;;20.60;4.78;;;;;;;22.88;85.21;99051.28;5091913;28;20233;-75
2023/05/23 06:35:54;;;;;;;20.63;5.82;;;;;;;22.94;81.17;99050.53;5092156;28;20202;-74
2023/05/23 06:38:23;;;;;;;3.97;2.70;;;;;;;23.06;79.97;99051.63;5092058;28;20244;-72
2023/05/23 06:40:49;;;;;;;4.25;2.28;;;;;;;22.90;77.91;99049.31;5092190;28;20199;-71
2023/05/23 06:43:16;;;;;;;3.55;2.30;;;;;;;23.00;79.88;99049.78;5091862;28;20278;-75
2023/05/23 06:45:45;;;;;;;3.80;2.60;;;;;;;22.72;79.47;99054.97;5091724;28;20199;-71
2023/05/23 06:48:12;;;;;;;4.22;2.70;;;;;;;22.98;81.54;99044.78;5091938;28;20704;-75
2023/05/23 06:50:40;;;;;;;3.00;2.38;;;;;;;23.26;81.52;99042.09;5091699;28;20251;-70
2023/05/23 06:53:07;;;;;;;4.38;2.80;;;;;;;23.62;76.59;99048.03;5091599;28;20247;-70
2023/05/23 06:55:35;;;;;;;3.72;2.67;;;;;;;23.21;73.71;99054.94;5091482;28;20198;-70
2023/05/23 06:58:03;;;;;;;2.92;2.38;;;;;;;22.92;75.21;99048.13;5091757;28;20198;-70
2023/05/23 07:00:30;;;;;;;4.97;2.75;;;;;;;23.38;81.39;99041.53;5091566;28;20286;-70
2023/05/23 07:02:59;;;;;;;4.65;2.53;;;;;;;23.72;77.78;99044.09;5091602;28;20263;-75
2023/05/23 07:05:27;;;;;;;9.30;3.13;;;;;;;23.99;78.79;99048.56;5091405;28;20884;-75
2023/05/23 07:07:54;;;;;;;7.00;3.38;;;;;;;24.04;77.50;99046.97;5091021;28;20206;-75
2023/05/23 07:10:21;;;;;;;9.52;3.78;;;;;;;24.34;73.18;99051.81;5092063;28;20259;-70
2023/05/23 07:12:49;;;;;;;8.63;3.65;;;;;;;24.39;71.86;99049.41;5090955;28;20221;-75
2023/05/23 07:15:16;;;;;;;5.13;2.88;;;;;;;24.21;71.74;99044.00;5091355;28;20218;-75
2023/05/23 07:17:43;;;;;;;4.65;2.88;;;;;;;24.20;76.98;99047.59;5091431;28;20288;-75
2023/05/23 07:20:11;;;;;;;6.75;3.10;;;;;;;24.53;73.01;99040.59;5091382;28;20222;-70
2023/05/23 07:22:37;;;;;;;3.47;2.50;;;;;;;24.11;73.93;99041.75;5091285;28;20203;-75
2023/05/23 07:25:05;;;;;;;3.35;2.67;;;;;;;24.65;74.03;99042.59;5090777;28;20651;-70
2023/05/23 07:27:32;;;;;;;4.28;2.58;;;;;;;24.68;66.10;99042.19;5091023;28;20206;-70
2023/05/23 07:30:00;;;;;;;5.03;2.63;;;;;;;24.76;71.59;99042.00;5091373;28;20226;-75
2023/05/23 07:32:27;;;;;;;5.00;2.70;;;;;;;24.87;75.18;99041.38;5091034;28;20210;-75
2023/05/23 07:34:54;;;;;;;3.25;2.55;;;;;;;25.12;75.14;99038.06;5090917;28;20238;-70
2023/05/23 07:37:20;;;;;;;5.55;2.95;;;;;;;25.37;67.66;99039.03;5090676;28;20214;-75
2023/05/23 07:39:47;;;;;;;3.65;2.60;;;;;;;24.67;62.96;99040.56;5090705;28;20390;-75
2023/05/23 07:42:14;;;;;;;6.65;2.60;;;;;;;24.23;67.20;99040.19;5091066;28;20198;-76
2023/05/23 07:44:41;;;;;;;3.28;2.45;;;;;;;24.69;66.27;99043.78;5090997;28;20676;-76
2023/05/23 07:47:10;;;;;;;3.50;2.38;;;;;;;24.82;65.70;99038.56;5090933;28;20712;-70
2023/05/23 07:49:36;;;;;;;4.47;3.15;;;;;;;25.10;68.25;99051.34;5090852;28;20594;-70
2023/05/23 07:52:03;;;;;;;2.75;2.20;;;;;;;25.11;62.87;99039.09;5090982;28;20202;-70
2023/05/23 07:54:30;;;;;;;2.97;2.30;;;;;;;25.03;62.39;99046.16;5090748;28;20242;-70
2023/05/23 07:56:57;;;;;;;3.92;2.50;;;;;;;25.46;63.53;99040.38;5090701;28;20249;-70
2023/05/23 07:59:24;;;;;;;3.60;2.40;;;;;;;24.93;66.58;99037.09;5090610;28;20730;-70
2023/05/23 08:01:50;;;;;;;3.20;2.28;;;;;;;25.06;61.26;99040.50;5090697;28;20270;-70
2023/05/23 08:04:19;;;;;;;6.55;2.38;;;;;;;24.53;60.78;99030.16;5090627;28;20271;-71
2023/05/23 08:06:47;;;;;;;2.97;2.17;;;;;;;24.89;63.26;99038.53;5090553;28;20251;-75
2023/05/23 08:09:14;;;;;;;3.70;2.28;;;;;;;25.46;62.14;99035.16;5090426;28;20218;-70
2023/05/23 08:11:41;;;;;;;2.85;2.20;;;;;;;25.72;56.93;99028.97;5090237;28;20297;-70
2023/05/23 08:14:08;;;;;;;8.82;3.17;;;;;;;25.63;54.25;99032.88;5090247;28;20233;-74
2023/05/23 08:16:35;;;;;;;6.18;2.55;;;;;;;25.80;59.11;99022.66;5090276;28;20205;-74
2023/05/23 08:19:02;;;;;;;2.78;2.28;;;;;;;25.74;53.00;99026.13;5090240;28;20226;-75
2023/05/23 08:21:30;;;;;;;4.78;2.40;;;;;;;25.36;54.66;99026.94;5090231;28;20228;-70
2023/05/23 08:23:57;;;;;;;2.88;2.05;;;;;;;25.88;50.92;99032.13;5090403;28;20905;-75
2023/05/23 08:26:26;;;;;;;2.30;1.90;;;;;;;26.12;50.95;99022.69;5090087;28;20198;-74
2023/05/23 08:28:53;;;;;;;3.08;2.15;;;;;;;26.45;51.86;99026.88;5090034;28;20222;-74
2023/05/23 08:31:20;;;;;;;3.97;2.20;;;;;;;26.67;49.70;99022.06;5090052;28;20190;-72
2023/05/23 08:33:47;;;;;;;3.95;2.00;;;;;;;26.30;51.29;99025.38;5090001;28;20314;-74
2023/05/23 08:36:14;;;;;;;3.65;2.00;;;;;;;26.63;53.05;99011.19;5090306;28;20194;-75
2023/05/23 08:38:42;;;;;;;2.88;2.17;;;;;;;26.80;54.29;99014.06;5089904;28;20221;-70
2023/05/23 08:41:18;;;;;;;3.03;2.30;;;;;;;27.12;51.25;99022.59;5089934;28;20243;-75
2023/05/23 08:43:45;;;;;;;2.40;1.92;;;;;;;27.05;50.10;99021.84;5089729;28;20693;-74
2023/05/23 08:46:12;;;;;;;3.50;2.15;;;;;;;27.27;50.72;99020.41;5090049;28;20217;-74
2023/05/23 08:48:40;;;;;;;3.17;2.33;;;;;;;26.62;47.97;99018.28;5088900;28;20555;-70
2023/05/23 08:51:10;;;;;;;2.83;1.95;;;;;;;26.71;47.15;99015.38;5090066;28;20206;-70
2023/05/23 08:53:41;;;;;;;2.38;1.88;;;;;;;27.18;46.33;99016.47;5089691;28;20994;-75
2023/05/23 08:56:10;;;;;;;2.58;2.10;;;;;;;27.61;46.87;99009.47;5089845;28;20194;-76
2023/05/23 08:58:39;;;;;;;2.63;2.10;;;;;;;27.19;46.99;99019.91;5089588;28;20226;-71
2023/05/23 09:01:07;;;;;;;1.98;1.70;;;;;;;27.14;48.21;99020.56;5089711;28;20642;-75
2023/05/23 09:03:36;;;;;;;2.70;2.00;;;;;;;27.64;49.99;99009.81;5089797;28;20765;-75
2023/05/23 09:06:03;;;;;;;3.85;2.15;;;;;;;28.26;47.37;99011.34;5089698;28;20198;-75
2023/05/23 09:08:30;;;;;;;2.22;1.90;;;;;;;27.43;47.03;99003.25;5089740;28;20604;-71
2023/05/23 09:10:57;;;;;;;3.33;1.65;;;;;;;27.30;47.22;99003.41;5089765;28;20201;-75
2023/05/23 09:13:27;;;;;;;3.05;2.20;;;;;;;26.54;49.04;99002.00;5089386;28;20291;-76
2023/05/23 09:16:01;;;;;;;4.35;2.22;;;;;;;27.43;47.33;99002.44;5089756;28;20602;-71
2023/05/23 09:18:33;;;;;;;2.92;1.95;;;;;;;27.68;48.74;99005.72;5089510;28;20218;-71
2023/05/23 09:21:00;;;;;;;2.17;1.98;;;;;;;27.89;53.31;99006.25;5089538;28;20201;-76
2023/05/23 09:23:30;;;;;;;4.90;2.20;;;;;;;27.91;46.32;99010.25;5089604;28;20218;-75
2023/05/23 09:25:57;;;;;;;3.13;2.35;;;;;;;27.63;46.05;99002.94;5089857;28;20214;-76
2023/05/23 09:28:25;;;;;;;2.97;2.35;;;;;;;26.89;46.47;99006.69;5089861;28;20611;-71
2023/05/23 09:30:58;;;;;;;2.42;2.10;;;;;;;26.98;49.19;99006.19;5090950;28;20199;-76
2023/05/23 09:33:29;;;;;;;4.15;2.33;;;;;;;26.67;46.20;99004.50;5090200;28;20226;-71
2023/05/23 09:35:57;;;;;;;2.42;1.63;;;;;;;27.00;46.61;99000.72;5090592;28;20198;-71
2023/05/23 09:38:24;;;;;;;2.72;1.90;;;;;;;27.79;48.04;99000.75;5089708;28;20682;-76
2023/05/23 09:40:56;;;;;;;4.40;2.42;;;;;;;28.01;47.97;98993.94;5089487;28;20225;-76
2023/05/23 09:43:25;;;;;;;2.20;1.90;;;;;;;27.95;46.79;99000.09;5089185;28;20218;-76
2023/05/23 09:45:54;;;;;;;3.92;2.25;;;;;;;27.93;49.07;99002.16;5089163;28;20641;-76
2023/05/23 09:48:29;;;;;;;3.03;2.30;;;;;;;27.84;48.86;99000.88;5089301;28;20226;-76
2023/05/23 09:50:56;;;;;;;5.70;2.30;;;;;;;27.61;48.42;99004.22;5089326;28;20217;-76
2023/05/23 09:53:23;;;;;;;4.18;2.22;;;;;;;27.62;47.71;99001.38;5089126;28;20218;-72
2023/05/23 09:55:51;;;;;;;5.80;2.42;;;;;;;27.61;44.54;98994.53;5088864;28;20248;-76
2023/05/23 09:58:20;;;;;;;3.30;2.25;;;;;;;27.55;47.83;98995.41;5089030;28;20313;-71
2023/05/23 10:00:51;;;;;;;23.75;4.28;;;;;;;27.86;46.39;98991.75;5091077;28;20197;-71
2023/05/23 10:03:21;;;;;;;3.47;2.25;;;;;;;28.17;45.96;98992.47;5092884;28;20611;-75
2023/05/23 10:05:48;;;;;;;5.15;2.25;;;;;;;28.20;47.48;98992.03;5092632;28;20202;-71
2023/05/23 10:08:22;;;;;;;4.78;2.60;;;;;;;27.99;47.24;98985.50;5092631;28;20233;-76
2023/05/23 10:11:27;;;;;;;4.13;2.65;;;;;;;27.71;46.81;98988.72;5092719;28;20462;-71
2023/05/23 10:13:55;;;;;;;6.28;2.45;;;;;;;27.82;45.67;98984.53;5092613;28;20279;-71
2023/05/23 10:16:28;;;;;;;3.58;2.53;;;;;;;27.97;47.01;98982.28;5092747;28;20194;-76
2023/05/23 10:18:59;;;;;;;3.80;2.50;;;;;;;27.82;51.11;98980.09;5092742;28;20218;-71
2023/05/23 10:21:35;;;;;;;3.00;2.30;;;;;;;27.87;46.83;98982.06;5092673;28;20662;-75
2023/05/23 10:24:04;;;;;;;16.52;4.18;;;;;;;27.90;51.22;98981.59;5092389;28;20707;-77
2023/05/23 10:26:31;;;;;;;3.92;2.65;;;;;;;28.47;49.82;98987.13;5092317;28;20736;-76
2023/05/23 10:28:58;;;;;;;3.38;2.35;;;;;;;28.66;45.96;98980.72;5092448;28;20419;-76
2023/05/23 10:31:28;;;;;;;5.47;3.38;;;;;;;28.54;47.05;98982.56;5092516;28;20267;-76
2023/05/23 10:34:02;;;;;;;7.75;4.35;;;;;;;28.25;48.64;98978.22;5092535;28;20256;-76
2023/05/23 10:36:37;;;;;;;17.40;4.78;;;;;;;28.29;50.06;98974.06;5092665;28;20206;-71
2023/05/23 10:39:08;;;;;;;3.22;2.35;;;;;;;28.02;47.15;98976.34;5092075;28;20229;-76
2023/05/23 10:41:43;;;;;;;4.03;2.08;;;;;;;28.09;49.00;98974.41;5092269;28;20226;-75
2023/05/23 10:44:16;;;;;;;4.35;2.53;;;;;;;28.59;48.88;98964.25;5091892;28;20240;-71
2023/05/23 10:46:56;;;;;;;3.22;2.55;;;;;;;28.53;48.78;98970.44;5092055;28;20259;-71
2023/05/23 10:49:37;;;;;;;3.88;2.78;;;;;;;28.45;48.29;98973.44;5091617;28;20272;-71
2023/05/23 10:52:06;;;;;;;3.38;2.28;;;;;;;28.23;46.78;98972.38;5092107;28;20228;-75
2023/05/23 10:54:35;;;;;;;3.22;2.42;;;;;;;28.50;47.94;98968.25;5091596;28;20241;-75
2023/05/23 10:57:06;;;;;;;3.53;2.25;;;;;;;28.16;46.89;98968.03;5091921;28;20202;-71
2023/05/23 10:59:33;;;;;;;3.42;2.50;;;;;;;28.49;49.75;98958.78;5091579;28;20218;-75
2023/05/23 11:02:03;;;;;;;7.40;2.70;;;;;;;28.72;50.85;98967.66;5091701;28;20205;-76
2023/05/23 11:04:30;;;;;;;3.75;2.40;;;;;;;28.18;47.57;98963.31;5091726;28;20225;-71
2023/05/23 11:06:57;;;;;;;11.82;2.88;;;;;;;27.95;48.21;98958.03;5091885;28;20646;-75
2023/05/23 11:09:24;;;;;;;3.70;2.25;;;;;;;27.00;48.33;98958.75;5091654;28;20218;-71
2023/05/23 11:12:01;;;;;;;45.03;7.00;;;;;;;27.23;50.28;98951.00;5090854;28;20630;-75
2023/05/23 11:14:32;;;;;;;4.18;2.80;;;;;;;27.60;50.75;98945.63;5091547;28;20241;-75
2023/05/23 11:17:14;;;;;;;2.60;2.17;;;;;;;27.80;47.79;98949.81;5091714;28;20247;-71
2023/05/23 11:19:56;;;;;;;6.10;3.42;;;;;;;28.15;51.95;98932.22;5091398;28;20214;-71
2023/05/23 11:22:28;;;;;;;4.63;2.70;;;;;;;28.27;48.01;98939.31;5091516;28;20243;-76
2023/05/23 11:24:57;;;;;;;4.60;2.72;;;;;;;28.09;47.89;98948.91;5091386;28;20275;-76
2023/05/23 11:27:28;;;;;;;4.32;2.55;;;;;;;27.75;47.85;98940.75;5091225;28;20198;-71
2023/05/23 11:30:03;;;;;;;3.25;2.70;;;;;;;27.45;48.68;98947.88;5091427;28;20236;-71
2023/05/23 11:32:32;;;;;;;3.28;2.50;;;;;;;27.46;46.56;98936.34;5091275;28;20288;-71
2023/05/23 11:35:02;;;;;;;4.57;2.72;;;;;;;27.20;46.27;98930.44;5090672;28;20709;-77